Time,TemperatureF,DewpointF,PressureIn,WindDirection,WindDirectionDegrees,WindSpeedMPH,WindSpeedGustMPH,Humidity,HourlyPrecipIn,Conditions,Clouds,dailyrainin,SoftwareType,DateUTC
2013-02-05 00:00:00,21.9,18.0,29.96,NNW,337,6.5,9.2,85,0.00,,,0.00,WUHU21623XXSP,2013-02-05 06:00:00,
2013-02-05 00:05:00,21.7,17.9,29.95,NNW,337,0.0,6.5,85,0.00,,,0.00,WUHU21623XXSP,2013-02-05 06:05:00,
2013-02-05 00:10:00,21.6,17.7,29.95,NNW,337,4.3,6.5,85,0.00,,,0.00,WUHU21623XXSP,2013-02-05 06:10:00,
2013-02-05 00:15:00,21.4,17.5,29.95,NW,315,4.0,5.4,85,0.00,,,0.00,WUHU21623XXSP,2013-02-05 06:15:00,
2013-02-05 00:20:00,21.2,17.3,29.95,NW,315,0.0,5.4,85,0.00,,,0.00,WUHU21623XXSP,2013-02-05 06:20:00,
2013-02-05 00:25:00,21.0,17.1,29.95,NW,315,0.0,0.0,85,0.00,,,0.00,WUHU21623XXSP,2013-02-05 06:25:00,
2013-02-05 00:31:00,20.8,17.0,29.95,NW,315,0.0,0.0,85,0.00,,,0.00,WUHU21623XXSP,2013-02-05 06:31:00,
2013-02-05 00:36:00,20.7,16.8,29.94,NNW,337,0.0,0.0,85,0.00,,,0.00,WUHU21623XXSP,2013-02-05 06:36:00,
2013-02-05 00:41:00,20.5,16.9,29.94,NNW,337,0.0,0.0,86,0.00,,,0.00,WUHU21623XXSP,2013-02-05 06:41:00,
2013-02-05 00:46:00,20.5,16.9,29.94,NNW,337,0.0,0.0,86,0.00,,,0.00,WUHU21623XXSP,2013-02-05 06:46:00,
2013-02-05 00:51:00,20.1,16.4,29.93,NNW,337,0.0,0.0,85,0.00,,,0.00,WUHU21623XXSP,2013-02-05 06:51:00,
2013-02-05 00:56:00,20.1,16.3,29.93,NNW,337,0.0,0.0,85,0.00,,,0.00,WUHU21623XXSP,2013-02-05 06:56:00,
2013-02-05 01:01:00,19.9,16.1,29.93,NNW,337,0.0,0.0,85,0.00,,,0.00,WUHU21623XXSP,2013-02-05 07:01:00,
2013-02-05 01:06:00,19.9,16.1,29.93,NNW,337,0.0,0.0,85,0.00,,,0.00,WUHU21623XXSP,2013-02-05 07:06:00,
2013-02-05 01:11:00,19.9,16.1,29.93,NNW,337,0.0,0.0,85,0.00,,,0.00,WUHU21623XXSP,2013-02-05 07:11:00,
2013-02-05 01:16:00,19.9,16.1,29.93,NNW,337,0.0,0.0,85,0.00,,,0.00,WUHU21623XXSP,2013-02-05 07:16:00,
2013-02-05 01:21:00,19.9,16.1,29.93,NNW,337,0.0,0.0,85,0.00,,,0.00,WUHU21623XXSP,2013-02-05 07:21:00,
2013-02-05 01:26:00,19.9,16.1,29.93,NNW,337,0.0,0.0,85,0.00,,,0.00,WUHU21623XXSP,2013-02-05 07:26:00,
2013-02-05 01:31:00,19.9,16.1,29.94,NNW,337,0.0,0.0,85,0.00,,,0.00,WUHU21623XXSP,2013-02-05 07:31:00,
2013-02-05 01:36:00,19.9,16.1,29.93,NNW,337,0.0,0.0,85,0.00,,,0.00,WUHU21623XXSP,2013-02-05 07:36:00,
2013-02-05 01:41:00,19.9,16.1,29.94,NNW,337,0.0,0.0,85,0.00,,,0.00,WUHU21623XXSP,2013-02-05 07:41:00,
2013-02-05 01:46:00,19.9,16.1,29.93,NNW,337,0.0,0.0,85,0.00,,,0.00,WUHU21623XXSP,2013-02-05 07:46:00,
2013-02-05 01:51:00,19.9,16.1,29.93,NNW,337,0.0,0.0,85,0.00,,,0.00,WUHU21623XXSP,2013-02-05 07:51:00,
2013-02-05 01:56:00,19.9,16.1,29.93,NNW,337,0.0,0.0,85,0.00,,,0.00,WUHU21623XXSP,2013-02-05 07:56:00,
2013-02-05 02:01:00,20.1,16.3,29.93,NNW,337,0.0,0.0,85,0.00,,,0.00,WUHU21623XXSP,2013-02-05 08:01:00,
2013-02-05 02:06:00,20.1,16.3,29.94,NNW,337,0.0,0.0,85,0.00,,,0.00,WUHU21623XXSP,2013-02-05 08:06:00,
2013-02-05 02:12:00,20.1,16.3,29.93,NNW,337,0.0,0.0,85,0.00,,,0.00,WUHU21623XXSP,2013-02-05 08:12:00,
2013-02-05 02:17:00,20.1,16.3,29.94,NNW,337,0.0,0.0,85,0.00,,,0.00,WUHU21623XXSP,2013-02-05 08:17:00,
2013-02-05 02:22:00,20.1,16.3,29.93,NNW,337,0.0,0.0,85,0.00,,,0.00,WUHU21623XXSP,2013-02-05 08:22:00,
2013-02-05 02:27:00,19.9,16.1,29.93,NNW,337,0.0,0.0,85,0.00,,,0.00,WUHU21623XXSP,2013-02-05 08:27:00,
2013-02-05 02:32:00,19.9,16.1,29.92,NNW,337,0.0,0.0,85,0.00,,,0.00,WUHU21623XXSP,2013-02-05 08:32:00,
2013-02-05 02:37:00,19.9,16.1,29.92,NNW,337,0.0,0.0,85,0.00,,,0.00,WUHU21623XXSP,2013-02-05 08:37:00,
2013-02-05 02:42:00,19.9,16.1,29.93,NNW,337,0.0,0.0,85,0.00,,,0.00,WUHU21623XXSP,2013-02-05 08:42:00,
2013-02-05 02:47:00,19.8,15.9,29.92,NNW,337,0.0,0.0,85,0.00,,,0.00,WUHU21623XXSP,2013-02-05 08:47:00,
2013-02-05 02:53:00,19.6,15.7,29.91,NNW,337,0.0,0.0,85,0.00,,,0.00,WUHU21623XXSP,2013-02-05 08:53:00,
2013-02-05 02:58:00,19.6,15.7,29.92,NNW,337,0.0,0.0,85,0.00,,,0.00,WUHU21623XXSP,2013-02-05 08:58:00,
2013-02-05 03:03:00,19.4,15.7,29.91,NNW,337,0.0,0.0,85,0.00,,,0.00,WUHU21623XXSP,2013-02-05 09:03:00,
2013-02-05 03:08:00,19.2,15.3,29.90,NNW,337,0.0,0.0,85,0.00,,,0.00,WUHU21623XXSP,2013-02-05 09:08:00,
2013-02-05 03:13:00,19.0,15.2,29.90,NNW,337,0.0,0.0,85,0.00,,,0.00,WUHU21623XXSP,2013-02-05 09:13:00,
2013-02-05 03:18:00,18.9,15.2,29.90,NNW,337,0.0,0.0,85,0.00,,,0.00,WUHU21623XXSP,2013-02-05 09:18:00,
2013-02-05 03:23:00,18.7,14.8,29.90,NNW,337,0.0,0.0,85,0.00,,,0.00,WUHU21623XXSP,2013-02-05 09:23:00,
2013-02-05 03:28:00,18.3,14.4,29.90,NNW,337,0.0,0.0,85,0.00,,,0.00,WUHU21623XXSP,2013-02-05 09:28:00,
2013-02-05 03:33:00,18.1,14.3,29.90,NNW,337,0.0,0.0,85,0.00,,,0.00,WUHU21623XXSP,2013-02-05 09:33:00,
2013-02-05 03:38:00,18.0,14.1,29.90,NNW,337,0.0,0.0,85,0.00,,,0.00,WUHU21623XXSP,2013-02-05 09:38:00,
2013-02-05 03:43:00,17.8,13.9,29.90,NNW,337,0.0,0.0,85,0.00,,,0.00,WUHU21623XXSP,2013-02-05 09:43:00,
2013-02-05 03:48:00,17.4,13.9,29.90,NNW,337,0.0,0.0,85,0.00,,,0.00,WUHU21623XXSP,2013-02-05 09:48:00,
2013-02-05 03:53:00,17.4,13.6,29.92,NNW,337,0.0,0.0,85,0.00,,,0.00,WUHU21623XXSP,2013-02-05 09:53:00,
2013-02-05 03:58:00,17.4,13.6,29.92,NNW,337,0.0,0.0,85,0.00,,,0.00,WUHU21623XXSP,2013-02-05 09:58:00,
2013-02-05 04:04:00,17.2,13.4,29.92,NNW,337,0.0,0.0,85,0.00,,,0.00,WUHU21623XXSP,2013-02-05 10:04:00,
2013-02-05 04:09:00,17.2,13.4,29.91,NNW,337,0.0,0.0,85,0.00,,,0.00,WUHU21623XXSP,2013-02-05 10:09:00,
2013-02-05 04:14:00,17.4,13.6,29.91,NNW,337,0.0,0.0,85,0.00,,,0.00,WUHU21623XXSP,2013-02-05 10:14:00,
2013-02-05 04:19:00,17.4,13.6,29.91,NNW,337,0.0,0.0,85,0.00,,,0.00,WUHU21623XXSP,2013-02-05 10:19:00,
2013-02-05 04:25:00,17.4,13.8,29.91,NNW,337,0.0,0.0,86,0.00,,,0.00,WUHU21623XXSP,2013-02-05 10:25:00,
2013-02-05 04:30:00,17.4,13.8,29.91,NNW,337,0.0,0.0,86,0.00,,,0.00,WUHU21623XXSP,2013-02-05 10:30:00,
2013-02-05 04:35:00,17.8,14.2,29.91,NNW,337,0.0,0.0,86,0.00,,,0.00,WUHU21623XXSP,2013-02-05 10:35:00,
2013-02-05 04:40:00,17.8,14.2,29.91,NNW,337,0.0,0.0,86,0.00,,,0.00,WUHU21623XXSP,2013-02-05 10:40:00,
2013-02-05 04:45:00,18.0,14.4,29.91,NNW,337,0.0,0.0,86,0.00,,,0.00,WUHU21623XXSP,2013-02-05 10:45:00,
2013-02-05 04:50:00,18.1,14.5,29.91,NNW,337,0.0,0.0,86,0.00,,,0.00,WUHU21623XXSP,2013-02-05 10:50:00,
2013-02-05 04:55:00,18.5,14.9,29.91,NNW,337,0.0,0.0,86,0.00,,,0.00,WUHU21623XXSP,2013-02-05 10:55:00,
2013-02-05 05:00:00,18.9,15.3,29.91,NNW,337,0.0,0.0,86,0.00,,,0.00,WUHU21623XXSP,2013-02-05 11:00:00,
2013-02-05 05:05:00,19.2,15.6,29.90,NNW,337,0.0,0.0,86,0.00,,,0.00,WUHU21623XXSP,2013-02-05 11:05:00,
2013-02-05 05:10:00,19.6,16.1,29.90,NNW,337,0.0,0.0,87,0.00,,,0.00,WUHU21623XXSP,2013-02-05 11:10:00,
2013-02-05 05:16:00,19.6,16.3,29.90,NNW,337,0.0,0.0,87,0.00,,,0.00,WUHU21623XXSP,2013-02-05 11:16:00,
2013-02-05 05:21:00,20.1,16.8,29.90,NNW,337,0.0,0.0,87,0.00,,,0.00,WUHU21623XXSP,2013-02-05 11:21:00,
2013-02-05 05:28:00,20.8,17.5,29.90,SSW,202,0.0,0.0,87,0.00,,,0.00,WUHU21623XXSP,2013-02-05 11:28:00,
2013-02-05 05:33:00,21.0,17.7,29.90,SSW,202,0.0,0.0,87,0.00,,,0.00,WUHU21623XXSP,2013-02-05 11:33:00,
2013-02-05 05:39:00,21.4,18.0,29.90,SSW,202,0.0,0.0,87,0.00,,,0.00,WUHU21623XXSP,2013-02-05 11:39:00,
2013-02-05 05:44:00,21.7,18.2,29.90,SSW,202,0.0,0.0,87,0.00,,,0.00,WUHU21623XXSP,2013-02-05 11:44:00,
2013-02-05 05:49:00,21.9,18.6,29.90,SSW,202,0.0,0.0,87,0.00,,,0.00,WUHU21623XXSP,2013-02-05 11:49:00,
2013-02-05 05:54:00,22.1,18.8,29.91,SSW,202,0.0,0.0,87,0.00,,,0.00,WUHU21623XXSP,2013-02-05 11:54:00,
2013-02-05 05:59:00,22.3,18.9,29.90,SW,225,0.0,0.0,87,0.00,,,0.00,WUHU21623XXSP,2013-02-05 11:59:00,
2013-02-05 06:04:00,22.5,18.9,29.90,SW,225,0.0,0.0,87,0.00,,,0.00,WUHU21623XXSP,2013-02-05 12:04:00,
2013-02-05 06:09:00,22.6,19.3,29.90,SSW,202,0.0,0.0,87,0.00,,,0.00,WUHU21623XXSP,2013-02-05 12:09:00,
2013-02-05 06:14:00,22.8,19.3,29.90,SSW,202,0.0,0.0,87,0.00,,,0.00,WUHU21623XXSP,2013-02-05 12:14:00,
2013-02-05 06:19:00,22.8,19.5,29.90,SSW,202,0.0,0.0,87,0.00,,,0.00,WUHU21623XXSP,2013-02-05 12:19:00,
2013-02-05 06:24:00,22.8,19.8,29.90,SW,225,0.0,0.0,88,0.00,,,0.00,WUHU21623XXSP,2013-02-05 12:24:00,
2013-02-05 06:30:00,23.0,19.9,29.90,SSW,202,0.0,0.0,88,0.00,,,0.00,WUHU21623XXSP,2013-02-05 12:30:00,
2013-02-05 06:35:00,23.0,19.9,29.91,SW,225,0.0,1.6,88,0.00,,,0.00,WUHU21623XXSP,2013-02-05 12:35:00,
2013-02-05 06:40:00,23.0,19.9,29.90,SW,225,0.0,1.6,88,0.00,,,0.00,WUHU21623XXSP,2013-02-05 12:40:00,
2013-02-05 06:45:00,23.0,19.9,29.90,SW,225,0.0,0.0,88,0.00,,,0.00,WUHU21623XXSP,2013-02-05 12:45:00,
2013-02-05 06:51:00,23.0,19.9,29.90,SW,225,0.0,0.0,88,0.00,,,0.00,WUHU21623XXSP,2013-02-05 12:51:00,
2013-02-05 06:56:00,23.2,20.1,29.90,SW,225,0.0,0.0,88,0.00,,,0.00,WUHU21623XXSP,2013-02-05 12:56:00,
2013-02-05 07:01:00,23.2,20.1,29.91,SSW,202,3.8,3.8,88,0.00,,,0.00,WUHU21623XXSP,2013-02-05 13:01:00,
2013-02-05 07:06:00,23.4,20.1,29.90,SSW,202,0.0,3.8,88,0.00,,,0.00,WUHU21623XXSP,2013-02-05 13:06:00,
2013-02-05 07:11:00,23.4,20.3,29.91,SSW,202,0.0,3.8,88,0.00,,,0.00,WUHU21623XXSP,2013-02-05 13:11:00,
2013-02-05 07:16:00,23.4,20.3,29.91,WSW,247,0.0,0.0,88,0.00,,,0.00,WUHU21623XXSP,2013-02-05 13:16:00,
2013-02-05 07:22:00,23.5,20.5,29.91,WSW,247,0.0,0.0,88,0.00,,,0.00,WUHU21623XXSP,2013-02-05 13:22:00,
2013-02-05 07:27:00,23.5,20.5,29.90,SW,225,0.0,0.0,88,0.00,,,0.00,WUHU21623XXSP,2013-02-05 13:27:00,
2013-02-05 07:32:00,23.5,20.5,29.89,SSE,157,0.0,0.0,88,0.00,,,0.00,WUHU21623XXSP,2013-02-05 13:32:00,
2013-02-05 07:37:00,23.5,20.5,29.92,SSE,157,0.0,0.0,88,0.00,,,0.00,WUHU21623XXSP,2013-02-05 13:37:00,
2013-02-05 07:42:00,23.9,20.8,29.90,WSW,247,0.0,0.0,88,0.00,,,0.00,WUHU21623XXSP,2013-02-05 13:42:00,
2013-02-05 07:47:00,24.1,20.8,29.90,WSW,247,0.0,0.0,88,0.00,,,0.00,WUHU21623XXSP,2013-02-05 13:47:00,
2013-02-05 07:52:00,24.1,21.0,29.90,WSW,247,0.0,0.0,88,0.00,,,0.00,WUHU21623XXSP,2013-02-05 13:52:00,
2013-02-05 07:57:00,24.3,21.2,29.90,SSE,157,2.5,2.5,88,0.00,,,0.00,WUHU21623XXSP,2013-02-05 13:57:00,
2013-02-05 08:02:00,24.4,21.1,29.90,SSE,157,0.0,2.5,87,0.00,,,0.00,WUHU21623XXSP,2013-02-05 14:02:00,
2013-02-05 08:07:00,24.4,21.1,29.89,SSE,157,3.6,3.6,87,0.00,,,0.00,WUHU21623XXSP,2013-02-05 14:07:00,
2013-02-05 08:12:00,24.6,21.3,29.90,SSE,157,7.4,7.4,87,0.00,,,0.00,WUHU21623XXSP,2013-02-05 14:12:00,
2013-02-05 08:17:00,25.0,21.6,29.89,SSE,157,0.0,7.4,87,0.00,,,0.00,WUHU21623XXSP,2013-02-05 14:17:00,
2013-02-05 08:22:00,25.2,22.1,29.90,South,180,0.0,7.4,88,0.00,,,0.00,WUHU21623XXSP,2013-02-05 14:22:00,
2013-02-05 08:27:00,25.5,22.4,29.90,SSE,157,8.9,8.9,88,0.00,,,0.00,WUHU21623XXSP,2013-02-05 14:27:00,
2013-02-05 08:32:00,25.9,22.8,29.90,South,180,8.3,8.9,88,0.00,,,0.00,WUHU21623XXSP,2013-02-05 14:32:00,
2013-02-05 08:37:00,26.1,22.8,29.90,SSW,202,6.9,8.3,87,0.00,,,0.00,WUHU21623XXSP,2013-02-05 14:37:00,
2013-02-05 08:42:00,26.2,22.9,29.89,SSW,202,6.9,6.9,87,0.00,,,0.00,WUHU21623XXSP,2013-02-05 14:42:00,
2013-02-05 08:47:00,26.4,23.0,29.89,SSE,157,0.0,8.1,87,0.00,,,0.00,WUHU21623XXSP,2013-02-05 14:47:00,
2013-02-05 08:52:00,26.4,23.0,29.89,SSE,157,0.0,8.1,87,0.00,,,0.00,WUHU21623XXSP,2013-02-05 14:52:00,
2013-02-05 08:57:00,26.4,23.0,29.89,South,180,8.1,8.1,87,0.00,,,0.00,WUHU21623XXSP,2013-02-05 14:57:00,
2013-02-05 09:02:00,26.4,22.7,29.88,South,180,0.0,8.1,86,0.00,,,0.00,WUHU21623XXSP,2013-02-05 15:02:00,
2013-02-05 09:07:00,26.4,22.7,29.88,SSW,202,6.5,8.1,86,0.00,,,0.00,WUHU21623XXSP,2013-02-05 15:07:00,
2013-02-05 09:13:00,26.4,22.7,29.87,SSE,157,5.8,6.5,86,0.00,,,0.00,WUHU21623XXSP,2013-02-05 15:13:00,
2013-02-05 09:18:00,26.6,22.9,29.87,South,180,6.5,6.5,86,0.00,,,0.00,WUHU21623XXSP,2013-02-05 15:18:00,
2013-02-05 09:23:00,26.8,23.1,29.87,SSW,202,2.7,6.7,86,0.00,,,0.00,WUHU21623XXSP,2013-02-05 15:23:00,
2013-02-05 09:28:00,27.0,23.3,29.87,South,180,7.8,7.8,86,0.00,,,0.00,WUHU21623XXSP,2013-02-05 15:28:00,
2013-02-05 09:33:00,27.5,23.6,29.86,South,180,1.3,7.8,86,0.00,,,0.00,WUHU21623XXSP,2013-02-05 15:33:00,
2013-02-05 09:38:00,27.9,24.0,29.86,South,180,7.6,7.8,86,0.00,,,0.00,WUHU21623XXSP,2013-02-05 15:38:00,
2013-02-05 09:43:00,28.2,24.4,29.85,South,180,6.0,7.6,86,0.00,,,0.00,WUHU21623XXSP,2013-02-05 15:43:00,
2013-02-05 09:48:00,29.1,25.4,29.85,SSE,157,7.8,7.8,86,0.00,,,0.00,WUHU21623XXSP,2013-02-05 15:48:00,
2013-02-05 09:53:00,29.3,25.3,29.85,South,180,13.0,13.0,85,0.00,,,0.00,WUHU21623XXSP,2013-02-05 15:53:00,
2013-02-05 09:58:00,29.5,25.5,29.85,SSE,157,7.6,13.0,85,0.00,,,0.00,WUHU21623XXSP,2013-02-05 15:58:00,
2013-02-05 10:03:00,29.8,25.9,29.85,South,180,8.1,11.0,85,0.00,,,0.00,WUHU21623XXSP,2013-02-05 16:03:00,
2013-02-05 10:08:00,30.0,26.1,29.85,SSE,157,7.8,8.9,85,0.00,,,0.00,WUHU21623XXSP,2013-02-05 16:08:00,
2013-02-05 10:13:00,30.2,26.0,29.85,South,180,7.8,8.1,84,0.00,,,0.00,WUHU21623XXSP,2013-02-05 16:13:00,
2013-02-05 10:18:00,30.4,26.1,29.85,South,180,12.3,12.3,84,0.00,,,0.00,WUHU21623XXSP,2013-02-05 16:18:00,
2013-02-05 10:24:00,30.7,26.5,29.85,SW,225,0.0,12.3,84,0.00,,,0.00,WUHU21623XXSP,2013-02-05 16:24:00,
2013-02-05 10:29:00,30.6,26.3,29.85,South,180,4.0,4.0,84,0.00,,,0.00,WUHU21623XXSP,2013-02-05 16:29:00,
2013-02-05 10:35:00,30.6,26.3,29.85,SSW,202,8.9,8.9,84,0.00,,,0.00,WUHU21623XXSP,2013-02-05 16:35:00,
2013-02-05 10:40:00,30.7,26.5,29.86,SW,225,8.1,9.6,84,0.00,,,0.00,WUHU21623XXSP,2013-02-05 16:40:00,
2013-02-05 10:45:00,30.9,26.7,29.85,SSE,157,4.3,9.6,84,0.00,,,0.00,WUHU21623XXSP,2013-02-05 16:45:00,
2013-02-05 10:50:00,31.1,26.6,29.85,South,180,5.6,8.1,83,0.00,,,0.00,WUHU21623XXSP,2013-02-05 16:50:00,
2013-02-05 10:55:00,31.3,26.7,29.85,SSW,202,6.0,6.0,83,0.00,,,0.00,WUHU21623XXSP,2013-02-05 16:55:00,
2013-02-05 11:00:00,31.6,27.1,29.85,South,180,4.7,7.4,83,0.00,,,0.00,WUHU21623XXSP,2013-02-05 17:00:00,
2013-02-05 11:05:00,32.0,27.3,29.85,South,180,0.0,7.4,83,0.00,,,0.00,WUHU21623XXSP,2013-02-05 17:05:00,
2013-02-05 11:10:00,32.4,27.8,29.85,SSE,157,7.6,9.4,83,0.00,,,0.00,WUHU21623XXSP,2013-02-05 17:10:00,
2013-02-05 11:16:00,32.4,27.5,29.84,SSE,157,9.6,9.6,82,0.00,,,0.00,WUHU21623XXSP,2013-02-05 17:16:00,
2013-02-05 11:21:00,32.2,27.5,29.83,SSW,202,8.3,9.6,82,0.00,,,0.00,WUHU21623XXSP,2013-02-05 17:21:00,
2013-02-05 11:26:00,32.4,27.5,29.83,SSE,157,5.6,9.8,82,0.00,,,0.00,WUHU21623XXSP,2013-02-05 17:26:00,
2013-02-05 11:31:00,32.5,27.7,29.83,SSW,202,0.0,9.8,82,0.00,,,0.00,WUHU21623XXSP,2013-02-05 17:31:00,
2013-02-05 11:36:00,32.9,28.0,29.83,South,180,7.2,7.2,82,0.00,,,0.00,WUHU21623XXSP,2013-02-05 17:36:00,
2013-02-05 11:41:00,33.3,28.3,29.84,SW,225,8.1,8.1,82,0.00,,,0.00,WUHU21623XXSP,2013-02-05 17:41:00,
2013-02-05 11:46:00,33.6,28.6,29.83,WSW,247,6.7,8.1,82,0.00,,,0.00,WUHU21623XXSP,2013-02-05 17:46:00,
2013-02-05 11:51:00,33.6,28.3,29.83,West,270,7.8,7.8,81,0.00,,,0.00,WUHU21623XXSP,2013-02-05 17:51:00,
2013-02-05 11:56:00,33.8,28.5,29.82,SW,225,3.6,7.8,81,0.00,,,0.00,WUHU21623XXSP,2013-02-05 17:56:00,
2013-02-05 12:01:00,34.0,28.7,29.82,SSW,202,8.7,8.7,81,0.00,,,0.00,WUHU21623XXSP,2013-02-05 18:01:00,
2013-02-05 12:06:00,33.8,28.5,29.81,WSW,247,5.8,8.7,81,0.00,,,0.00,WUHU21623XXSP,2013-02-05 18:06:00,
2013-02-05 12:11:00,33.8,28.5,29.81,SSW,202,6.9,6.9,81,0.00,,,0.00,WUHU21623XXSP,2013-02-05 18:11:00,
2013-02-05 12:16:00,33.6,28.3,29.82,SSE,157,1.8,8.9,81,0.00,,,0.00,WUHU21623XXSP,2013-02-05 18:16:00,
2013-02-05 12:21:00,33.8,28.5,29.81,SSW,202,2.9,8.9,81,0.00,,,0.00,WUHU21623XXSP,2013-02-05 18:21:00,
2013-02-05 12:26:00,34.2,28.7,29.81,WSW,247,5.8,5.8,81,0.00,,,0.00,WUHU21623XXSP,2013-02-05 18:26:00,
2013-02-05 12:31:00,34.3,29.0,29.81,WSW,247,5.8,8.5,81,0.00,,,0.00,WUHU21623XXSP,2013-02-05 18:31:00,
2013-02-05 12:36:00,34.3,29.0,29.80,SSW,202,7.2,8.5,81,0.00,,,0.00,WUHU21623XXSP,2013-02-05 18:36:00,
2013-02-05 12:41:00,34.3,28.8,29.81,West,270,7.4,7.4,80,0.00,,,0.00,WUHU21623XXSP,2013-02-05 18:41:00,
2013-02-05 12:46:00,34.3,28.8,29.81,WSW,247,6.9,7.4,80,0.00,,,0.00,WUHU21623XXSP,2013-02-05 18:46:00,
2013-02-05 12:51:00,34.3,28.8,29.81,SW,225,5.8,7.4,80,0.00,,,0.00,WUHU21623XXSP,2013-02-05 18:51:00,
2013-02-05 12:56:00,34.3,28.8,29.82,WSW,247,0.0,6.9,80,0.00,,,0.00,WUHU21623XXSP,2013-02-05 18:56:00,
2013-02-05 13:01:00,34.3,28.8,29.81,WSW,247,6.9,6.9,80,0.00,,,0.00,WUHU21623XXSP,2013-02-05 19:01:00,
2013-02-05 13:06:00,34.5,28.9,29.81,West,270,2.2,6.9,80,0.00,,,0.00,WUHU21623XXSP,2013-02-05 19:06:00,
2013-02-05 13:11:00,34.5,28.9,29.81,West,270,0.0,2.2,80,0.00,,,0.00,WUHU21623XXSP,2013-02-05 19:11:00,
2013-02-05 13:16:00,34.7,29.1,29.81,WSW,247,6.5,6.5,80,0.00,,,0.00,WUHU21623XXSP,2013-02-05 19:16:00,
2013-02-05 13:21:00,34.7,29.1,29.81,WSW,247,0.0,6.5,80,0.00,,,0.00,WUHU21623XXSP,2013-02-05 19:21:00,
2013-02-05 13:26:00,34.9,29.3,29.80,West,270,0.0,0.4,80,0.00,,,0.00,WUHU21623XXSP,2013-02-05 19:26:00,
2013-02-05 13:31:00,34.9,29.3,29.80,WSW,247,5.8,5.8,80,0.00,,,0.00,WUHU21623XXSP,2013-02-05 19:31:00,
2013-02-05 13:36:00,34.9,29.3,29.80,West,270,0.0,5.8,80,0.00,,,0.00,WUHU21623XXSP,2013-02-05 19:36:00,
2013-02-05 13:41:00,34.9,29.3,29.80,SW,225,8.3,8.9,80,0.00,,,0.00,WUHU21623XXSP,2013-02-05 19:41:00,
2013-02-05 13:46:00,34.5,29.1,29.80,West,270,6.5,8.9,80,0.00,,,0.00,WUHU21623XXSP,2013-02-05 19:46:00,
2013-02-05 13:51:00,34.3,28.8,29.80,West,270,0.0,6.5,80,0.00,,,0.00,WUHU21623XXSP,2013-02-05 19:51:00,
2013-02-05 13:56:00,34.3,28.8,29.80,WSW,247,0.0,6.5,80,0.00,,,0.00,WUHU21623XXSP,2013-02-05 19:56:00,
2013-02-05 14:02:00,34.3,28.8,29.81,West,270,0.0,0.0,80,0.00,,,0.00,WUHU21623XXSP,2013-02-05 20:02:00,
2013-02-05 14:07:00,34.2,28.6,29.81,West,270,5.4,5.4,80,0.00,,,0.00,WUHU21623XXSP,2013-02-05 20:07:00,
2013-02-05 14:12:00,34.2,28.4,29.81,West,270,0.0,6.5,80,0.00,,,0.00,WUHU21623XXSP,2013-02-05 20:12:00,
2013-02-05 14:17:00,34.3,28.6,29.81,West,270,0.0,6.5,80,0.00,,,0.00,WUHU21623XXSP,2013-02-05 20:17:00,
2013-02-05 14:22:00,34.3,28.8,29.82,West,270,0.0,2.2,80,0.00,,,0.00,WUHU21623XXSP,2013-02-05 20:22:00,
2013-02-05 14:27:00,34.3,28.8,29.82,WSW,247,0.0,2.2,80,0.00,,,0.00,WUHU21623XXSP,2013-02-05 20:27:00,
2013-02-05 14:32:00,34.3,28.8,29.82,West,270,0.0,0.7,80,0.00,,,0.00,WUHU21623XXSP,2013-02-05 20:32:00,
2013-02-05 14:37:00,34.3,28.8,29.82,West,270,4.7,4.7,80,0.00,,,0.00,WUHU21623XXSP,2013-02-05 20:37:00,
2013-02-05 14:42:00,34.3,28.8,29.82,West,270,0.0,6.9,80,0.00,,,0.00,WUHU21623XXSP,2013-02-05 20:42:00,
2013-02-05 14:47:00,34.3,28.8,29.82,West,270,6.3,6.9,80,0.00,,,0.00,WUHU21623XXSP,2013-02-05 20:47:00,
2013-02-05 14:52:00,34.3,28.8,29.82,West,270,0.0,6.3,80,0.00,,,0.00,WUHU21623XXSP,2013-02-05 20:52:00,
2013-02-05 14:57:00,34.3,28.8,29.83,WSW,247,0.0,1.1,80,0.00,,,0.00,WUHU21623XXSP,2013-02-05 20:57:00,
2013-02-05 15:02:00,34.3,28.8,29.83,WNW,292,2.7,2.7,80,0.00,,,0.00,WUHU21623XXSP,2013-02-05 21:02:00,
2013-02-05 15:07:00,34.3,28.8,29.83,West,270,2.0,2.7,80,0.00,,,0.00,WUHU21623XXSP,2013-02-05 21:07:00,
2013-02-05 15:12:00,34.3,28.8,29.83,West,270,0.0,2.0,80,0.00,,,0.00,WUHU21623XXSP,2013-02-05 21:12:00,
2013-02-05 15:17:00,34.3,28.8,29.83,West,270,0.0,0.0,80,0.00,,,0.00,WUHU21623XXSP,2013-02-05 21:17:00,
2013-02-05 15:22:00,34.3,28.8,29.84,WNW,292,7.8,7.8,80,0.00,,,0.00,WUHU21623XXSP,2013-02-05 21:22:00,
2013-02-05 15:27:00,34.3,29.0,29.84,WSW,247,0.0,7.8,81,0.00,,,0.00,WUHU21623XXSP,2013-02-05 21:27:00,
2013-02-05 15:32:00,34.3,29.0,29.84,WSW,247,0.0,0.0,81,0.00,,,0.00,WUHU21623XXSP,2013-02-05 21:32:00,
2013-02-05 15:37:00,34.3,29.0,29.85,West,270,0.0,0.0,81,0.00,,,0.00,WUHU21623XXSP,2013-02-05 21:37:00,
2013-02-05 15:42:00,34.3,28.8,29.85,West,270,0.0,0.0,80,0.00,,,0.00,WUHU21623XXSP,2013-02-05 21:42:00,
2013-02-05 15:47:00,34.2,28.8,29.85,WNW,292,3.6,3.6,80,0.00,,,0.00,WUHU21623XXSP,2013-02-05 21:47:00,
2013-02-05 15:52:00,34.3,28.9,29.85,West,270,0.0,3.6,81,0.00,,,0.00,WUHU21623XXSP,2013-02-05 21:52:00,
2013-02-05 15:57:00,34.2,28.9,29.85,WNW,292,2.5,2.5,81,0.00,,,0.00,WUHU21623XXSP,2013-02-05 21:57:00,
2013-02-05 16:02:00,34.3,29.0,29.85,West,270,0.0,2.5,81,0.00,,,0.00,WUHU21623XXSP,2013-02-05 22:02:00,
2013-02-05 16:07:00,34.0,29.0,29.87,West,270,0.0,0.0,81,0.00,,,0.00,WUHU21623XXSP,2013-02-05 22:07:00,
2013-02-05 16:12:00,34.2,28.9,29.87,West,270,3.4,3.4,81,0.00,,,0.00,WUHU21623XXSP,2013-02-05 22:12:00,
2013-02-05 16:17:00,34.2,28.9,29.87,WNW,292,0.0,3.4,81,0.00,,,0.00,WUHU21623XXSP,2013-02-05 22:17:00,
2013-02-05 16:22:00,34.0,28.7,29.87,West,270,0.0,0.0,81,0.00,,,0.00,WUHU21623XXSP,2013-02-05 22:22:00,
2013-02-05 16:28:00,34.0,28.7,29.87,WNW,292,1.3,1.3,81,0.00,,,0.00,WUHU21623XXSP,2013-02-05 22:28:00,
2013-02-05 16:33:00,34.0,28.7,29.88,West,270,0.0,8.7,81,0.00,,,0.00,WUHU21623XXSP,2013-02-05 22:33:00,
2013-02-05 16:38:00,33.4,28.6,29.88,West,270,6.3,8.7,82,0.00,,,0.00,WUHU21623XXSP,2013-02-05 22:38:00,
2013-02-05 16:43:00,32.9,28.6,29.88,West,270,0.0,6.3,84,0.00,,,0.00,WUHU21623XXSP,2013-02-05 22:43:00,
2013-02-05 16:48:00,32.7,28.4,29.88,West,270,0.0,0.0,85,0.00,,,0.00,WUHU21623XXSP,2013-02-05 22:48:00,
2013-02-05 16:53:00,32.5,28.5,29.88,WNW,292,0.0,0.0,85,0.00,,,0.00,WUHU21623XXSP,2013-02-05 22:53:00,
2013-02-05 16:58:00,32.5,28.8,29.88,West,270,0.0,0.0,86,0.00,,,0.00,WUHU21623XXSP,2013-02-05 22:58:00,
2013-02-05 17:03:00,32.4,28.9,29.89,WNW,292,3.4,3.4,87,0.00,,,0.00,WUHU21623XXSP,2013-02-05 23:03:00,
2013-02-05 17:09:00,32.4,28.9,29.89,WNW,292,6.0,6.0,87,0.00,,,0.00,WUHU21623XXSP,2013-02-05 23:09:00,
2013-02-05 17:15:00,32.4,28.9,29.90,West,270,1.6,6.0,87,0.00,,,0.00,WUHU21623XXSP,2013-02-05 23:15:00,
2013-02-05 17:20:00,32.4,28.9,29.90,WNW,292,0.0,3.4,87,0.00,,,0.00,WUHU21623XXSP,2013-02-05 23:20:00,
2013-02-05 17:25:00,32.2,28.8,29.90,WNW,292,3.1,3.4,87,0.00,,,0.00,WUHU21623XXSP,2013-02-05 23:25:00,
2013-02-05 17:31:00,32.2,29.1,29.90,WNW,292,6.0,6.0,88,0.00,,,0.00,WUHU21623XXSP,2013-02-05 23:31:00,
2013-02-05 17:36:00,32.2,29.1,29.90,WNW,292,7.4,7.4,88,0.00,,,0.00,WUHU21623XXSP,2013-02-05 23:36:00,
2013-02-05 17:41:00,32.2,29.1,29.91,West,270,9.2,9.2,88,0.00,,,0.00,WUHU21623XXSP,2013-02-05 23:41:00,
2013-02-05 17:46:00,32.4,29.2,29.91,WNW,292,7.2,9.2,88,0.00,,,0.00,WUHU21623XXSP,2013-02-05 23:46:00,
2013-02-05 17:51:00,32.4,29.2,29.91,NW,315,7.8,9.2,88,0.00,,,0.00,WUHU21623XXSP,2013-02-05 23:51:00,
2013-02-05 17:56:00,32.4,29.2,29.91,WNW,292,7.2,7.8,88,0.00,,,0.00,WUHU21623XXSP,2013-02-05 23:56:00,
2013-02-05 18:01:00,32.4,29.2,29.92,NW,315,7.2,7.2,88,0.00,,,0.00,WUHU21623XXSP,2013-02-06 00:01:00,
2013-02-05 18:06:00,32.4,29.2,29.92,WNW,292,7.8,7.8,88,0.00,,,0.00,WUHU21623XXSP,2013-02-06 00:06:00,
2013-02-05 18:11:00,32.4,29.2,29.92,WNW,292,7.8,7.8,88,0.00,,,0.00,WUHU21623XXSP,2013-02-06 00:11:00,
2013-02-05 18:16:00,32.4,29.2,29.92,West,270,0.0,7.8,87,0.00,,,0.00,WUHU21623XXSP,2013-02-06 00:16:00,
2013-02-05 18:21:00,32.2,28.5,29.93,West,270,0.0,0.0,86,0.00,,,0.00,WUHU21623XXSP,2013-02-06 00:21:00,
2013-02-05 18:26:00,32.2,28.5,29.93,NW,315,10.5,12.3,86,0.00,,,0.00,WUHU21623XXSP,2013-02-06 00:26:00,
2013-02-05 18:31:00,31.8,28.1,29.93,West,270,8.9,12.3,86,0.00,,,0.00,WUHU21623XXSP,2013-02-06 00:31:00,
2013-02-05 18:36:00,31.8,28.1,29.94,NW,315,10.7,10.7,86,0.00,,,0.00,WUHU21623XXSP,2013-02-06 00:36:00,
2013-02-05 18:41:00,31.8,28.1,29.94,WNW,292,7.8,10.7,86,0.00,,,0.00,WUHU21623XXSP,2013-02-06 00:41:00,
2013-02-05 18:46:00,31.6,27.7,29.95,WNW,292,8.3,13.9,85,0.00,,,0.00,WUHU21623XXSP,2013-02-06 00:46:00,
2013-02-05 18:51:00,31.5,27.7,29.95,WNW,292,13.0,13.9,85,0.00,,,0.00,WUHU21623XXSP,2013-02-06 00:51:00,
2013-02-05 18:56:00,31.3,27.3,29.95,NW,315,7.6,13.0,85,0.00,,,0.00,WUHU21623XXSP,2013-02-06 00:56:00,
2013-02-05 19:01:00,31.3,27.0,29.95,NW,315,8.7,8.7,84,0.00,,,0.00,WUHU21623XXSP,2013-02-06 01:01:00,
2013-02-05 19:06:00,31.1,26.9,29.96,WNW,292,6.0,8.7,84,0.00,,,0.00,WUHU21623XXSP,2013-02-06 01:06:00,
2013-02-05 19:11:00,31.1,26.9,29.96,West,270,6.7,15.2,84,0.00,,,0.00,WUHU21623XXSP,2013-02-06 01:11:00,
2013-02-05 19:16:00,31.1,26.9,29.96,WSW,247,6.7,15.2,84,0.00,,,0.00,WUHU21623XXSP,2013-02-06 01:16:00,
2013-02-05 19:21:00,30.9,26.7,29.97,WNW,292,6.7,15.0,84,0.00,,,0.00,WUHU21623XXSP,2013-02-06 01:21:00,
2013-02-05 19:26:00,30.7,26.5,29.98,NW,315,7.4,15.0,84,0.00,,,0.00,WUHU21623XXSP,2013-02-06 01:26:00,
2013-02-05 19:31:00,30.6,26.5,29.98,West,270,4.5,14.8,84,0.00,,,0.00,WUHU21623XXSP,2013-02-06 01:31:00,
2013-02-05 19:37:00,30.2,26.0,29.99,WNW,292,9.8,14.8,84,0.00,,,0.00,WUHU21623XXSP,2013-02-06 01:37:00,
2013-02-05 19:42:00,30.0,25.8,29.99,NW,315,13.9,13.9,84,0.00,,,0.00,WUHU21623XXSP,2013-02-06 01:42:00,
2013-02-05 19:47:00,30.0,25.8,29.99,NW,315,9.8,13.9,84,0.00,,,0.00,WUHU21623XXSP,2013-02-06 01:47:00,
2013-02-05 19:52:00,30.0,25.8,29.99,WNW,292,6.9,9.8,84,0.00,,,0.00,WUHU21623XXSP,2013-02-06 01:52:00,
2013-02-05 19:57:00,30.0,25.8,29.99,WNW,292,6.5,7.4,84,0.00,,,0.00,WUHU21623XXSP,2013-02-06 01:57:00,
2013-02-05 20:02:00,29.8,25.6,30.00,NW,315,9.6,9.6,84,0.00,,,0.00,WUHU21623XXSP,2013-02-06 02:02:00,
2013-02-05 20:07:00,29.8,25.6,30.00,WNW,292,6.0,9.6,84,0.00,,,0.00,WUHU21623XXSP,2013-02-06 02:07:00,
2013-02-05 20:12:00,29.8,25.6,30.00,WNW,292,9.2,9.2,84,0.00,,,0.00,WUHU21623XXSP,2013-02-06 02:12:00,
2013-02-05 20:17:00,29.8,25.6,30.01,NNW,337,9.2,9.2,83,0.00,,,0.00,WUHU21623XXSP,2013-02-06 02:17:00,
2013-02-05 20:22:00,29.8,25.5,30.01,WNW,292,0.0,9.2,83,0.00,,,0.00,WUHU21623XXSP,2013-02-06 02:22:00,
2013-02-05 20:27:00,29.8,25.3,30.01,NW,315,3.6,4.0,83,0.00,,,0.00,WUHU21623XXSP,2013-02-06 02:27:00,
2013-02-05 20:32:00,29.8,25.3,30.01,NW,315,9.8,9.8,83,0.00,,,0.00,WUHU21623XXSP,2013-02-06 02:32:00,
2013-02-05 20:37:00,29.8,25.3,30.01,WNW,292,8.7,9.8,83,0.00,,,0.00,WUHU21623XXSP,2013-02-06 02:37:00,
2013-02-05 20:42:00,30.0,25.2,30.01,WNW,292,3.4,8.7,82,0.00,,,0.00,WUHU21623XXSP,2013-02-06 02:42:00,
2013-02-05 20:47:00,30.0,25.2,30.01,NNW,337,6.7,6.7,82,0.00,,,0.00,WUHU21623XXSP,2013-02-06 02:47:00,
2013-02-05 20:52:00,30.0,25.2,30.01,NW,315,0.0,6.7,82,0.00,,,0.00,WUHU21623XXSP,2013-02-06 02:52:00,
2013-02-05 20:57:00,30.0,25.2,30.01,NW,315,8.5,8.5,82,0.00,,,0.00,WUHU21623XXSP,2013-02-06 02:57:00,
2013-02-05 21:02:00,30.0,25.2,30.01,NNW,337,8.3,8.5,82,0.00,,,0.00,WUHU21623XXSP,2013-02-06 03:02:00,
2013-02-05 21:07:00,30.0,25.2,30.02,NW,315,0.0,8.3,82,0.00,,,0.00,WUHU21623XXSP,2013-02-06 03:07:00,
2013-02-05 21:12:00,30.0,25.2,30.02,NW,315,7.4,8.1,82,0.00,,,0.00,WUHU21623XXSP,2013-02-06 03:12:00,
2013-02-05 21:17:00,30.0,24.9,30.01,NNW,337,0.0,8.1,81,0.00,,,0.00,WUHU21623XXSP,2013-02-06 03:17:00,
2013-02-05 21:22:00,30.2,24.9,30.02,WNW,292,8.7,8.7,81,0.00,,,0.00,WUHU21623XXSP,2013-02-06 03:22:00,
2013-02-05 21:27:00,30.2,25.1,30.02,WNW,292,5.4,8.7,81,0.00,,,0.00,WUHU21623XXSP,2013-02-06 03:27:00,
2013-02-05 21:32:00,30.0,25.1,30.02,NW,315,1.8,5.4,81,0.00,,,0.00,WUHU21623XXSP,2013-02-06 03:32:00,
2013-02-05 21:37:00,30.0,24.9,30.03,NW,315,7.4,7.4,81,0.00,,,0.00,WUHU21623XXSP,2013-02-06 03:37:00,
2013-02-05 21:42:00,30.0,25.2,30.03,NW,315,0.4,8.3,82,0.00,,,0.00,WUHU21623XXSP,2013-02-06 03:42:00,
2013-02-05 21:47:00,30.0,25.2,30.03,NW,315,0.7,8.3,82,0.00,,,0.00,WUHU21623XXSP,2013-02-06 03:47:00,
2013-02-05 21:52:00,30.0,25.2,30.03,NW,315,0.0,4.5,82,0.00,,,0.00,WUHU21623XXSP,2013-02-06 03:52:00,
2013-02-05 21:57:00,30.0,24.9,30.04,NW,315,0.0,8.3,81,0.00,,,0.00,WUHU21623XXSP,2013-02-06 03:57:00,
2013-02-05 22:02:00,30.0,24.9,30.03,NW,315,3.8,8.3,81,0.00,,,0.00,WUHU21623XXSP,2013-02-06 04:02:00,
2013-02-05 22:07:00,30.0,24.9,30.04,NW,315,0.0,3.8,81,0.00,,,0.00,WUHU21623XXSP,2013-02-06 04:07:00,
2013-02-05 22:12:00,30.0,24.9,30.04,NW,315,5.4,5.4,81,0.00,,,0.00,WUHU21623XXSP,2013-02-06 04:12:00,
2013-02-05 22:17:00,30.2,25.1,30.04,NW,315,2.9,5.4,81,0.00,,,0.00,WUHU21623XXSP,2013-02-06 04:17:00,
2013-02-05 22:22:00,30.0,24.9,30.03,NNW,337,0.0,5.4,81,0.00,,,0.00,WUHU21623XXSP,2013-02-06 04:22:00,
2013-02-05 22:27:00,30.0,24.9,30.03,NW,315,0.0,6.0,81,0.00,,,0.00,WUHU21623XXSP,2013-02-06 04:27:00,
2013-02-05 22:32:00,30.0,24.9,30.03,NW,315,0.0,6.0,81,0.00,,,0.00,WUHU21623XXSP,2013-02-06 04:32:00,
2013-02-05 22:37:00,30.0,24.9,30.04,NW,315,0.0,0.0,81,0.00,,,0.00,WUHU21623XXSP,2013-02-06 04:37:00,
2013-02-05 22:43:00,30.0,24.9,30.04,NNW,337,0.0,0.0,81,0.00,,,0.00,WUHU21623XXSP,2013-02-06 04:43:00,
2013-02-05 22:48:00,30.0,24.9,30.03,NNW,337,0.0,0.0,81,0.00,,,0.00,WUHU21623XXSP,2013-02-06 04:48:00,
2013-02-05 22:53:00,30.0,24.9,30.04,NNW,337,0.0,0.0,81,0.00,,,0.00,WUHU21623XXSP,2013-02-06 04:53:00,
2013-02-05 22:58:00,30.0,24.9,30.04,NNW,337,0.0,0.0,81,0.00,,,0.00,WUHU21623XXSP,2013-02-06 04:58:00,
2013-02-05 23:00:00,30.0,24.9,30.04,NNW,337,0.0,0.0,81,0.00,,,0.00,WUHU21623XXSP,2013-02-06 05:00:00,
2013-02-05 23:05:00,30.0,24.9,30.05,NNW,337,0.0,0.0,81,0.00,,,0.00,WUHU21623XXSP,2013-02-06 05:05:00,
2013-02-05 23:10:00,30.0,24.9,30.06,NNW,337,0.0,0.0,81,0.00,,,0.00,WUHU21623XXSP,2013-02-06 05:10:00,
2013-02-05 23:15:00,30.0,24.9,30.05,NNW,337,0.0,0.0,81,0.00,,,0.00,WUHU21623XXSP,2013-02-06 05:15:00,
2013-02-05 23:20:00,30.0,24.9,30.06,NNW,337,0.0,0.0,81,0.00,,,0.00,WUHU21623XXSP,2013-02-06 05:20:00,
2013-02-05 23:25:00,30.0,24.9,30.06,NNW,337,0.0,0.0,81,0.00,,,0.00,WUHU21623XXSP,2013-02-06 05:25:00,
2013-02-05 23:30:00,30.0,24.9,30.06,NNW,337,0.0,0.0,81,0.00,,,0.00,WUHU21623XXSP,2013-02-06 05:30:00,
2013-02-05 23:35:00,30.0,24.9,30.07,NNW,337,0.0,0.0,81,0.00,,,0.00,WUHU21623XXSP,2013-02-06 05:35:00,
2013-02-05 23:40:00,30.2,25.1,30.07,NNW,337,0.0,0.0,81,0.00,,,0.00,WUHU21623XXSP,2013-02-06 05:40:00,
2013-02-05 23:45:00,30.2,25.1,30.07,NNW,337,0.0,0.0,81,0.00,,,0.00,WUHU21623XXSP,2013-02-06 05:45:00,
2013-02-05 23:50:00,30.4,25.3,30.08,NNW,337,0.0,0.0,81,0.00,,,0.00,WUHU21623XXSP,2013-02-06 05:50:00,
2013-02-05 23:55:00,30.6,25.3,30.08,NW,315,0.0,0.0,81,0.00,,,0.00,WUHU21623XXSP,2013-02-06 05:55:00,